sensor_id;sensor_type;location;lat;lon;timestamp;pressure;altitude;pressure_sealevel;temperature;humidity
62510;BME280;48558;48.242;11.654;2022-09-21T00:01:30;96951.97;;;6.11;100.00
62510;BME280;48558;48.242;11.654;2022-09-21T00:05:43;96956.97;;;6.16;100.00
62510;BME280;48558;48.242;11.654;2022-09-21T00:09:56;96960.66;;;6.29;100.00
62510;BME280;48558;48.242;11.654;2022-09-21T00:14:12;96966.03;;;6.36;100.00
62510;BME280;48558;48.242;11.654;2022-09-21T00:18:26;96966.78;;;6.40;100.00
62510;BME280;48558;48.242;11.654;2022-09-21T00:22:39;96959.84;;;6.32;100.00
62510;BME280;48558;48.242;11.654;2022-09-21T00:26:53;96958.06;;;6.22;100.00
62510;BME280;48558;48.242;11.654;2022-09-21T00:31:08;96957.69;;;6.20;100.00
62510;BME280;48558;48.242;11.654;2022-09-21T00:35:25;96951.84;;;6.18;100.00
62510;BME280;48558;48.242;11.654;2022-09-21T00:39:38;96964.59;;;6.05;100.00
62510;BME280;48558;48.242;11.654;2022-09-21T00:48:29;96968.78;;;5.90;100.00
62510;BME280;48558;48.242;11.654;2022-09-21T00:52:48;96969.31;;;5.77;100.00
62510;BME280;48558;48.242;11.654;2022-09-21T00:57:04;96967.94;;;5.66;100.00
62510;BME280;48558;48.242;11.654;2022-09-21T01:01:17;96959.34;;;5.64;100.00
62510;BME280;48558;48.242;11.654;2022-09-21T01:05:37;96963.03;;;5.54;100.00
62510;BME280;48558;48.242;11.654;2022-09-21T01:09:53;96954.53;;;5.45;100.00
62510;BME280;48558;48.242;11.654;2022-09-21T01:31:50;96965.25;;;5.36;100.00
62510;BME280;48558;48.242;11.654;2022-09-21T01:36:09;96959.09;;;5.25;100.00
62510;BME280;48558;48.242;11.654;2022-09-21T01:40:28;96959.84;;;5.29;100.00
62510;BME280;48558;48.242;11.654;2022-09-21T01:44:48;96959.75;;;5.36;100.00
62510;BME280;48558;48.242;11.654;2022-09-21T01:49:17;96976.47;;;5.15;100.00
62510;BME280;48558;48.242;11.654;2022-09-21T01:53:40;96959.41;;;5.03;100.00
62510;BME280;48558;48.242;11.654;2022-09-21T01:58:03;96966.88;;;4.99;100.00
62510;BME280;48558;48.242;11.654;2022-09-21T02:02:21;96966.53;;;4.94;100.00
62510;BME280;48558;48.242;11.654;2022-09-21T02:06:39;96969.72;;;4.89;100.00
62510;BME280;48558;48.242;11.654;2022-09-21T02:10:53;96951.84;;;4.81;100.00
62510;BME280;48558;48.242;11.654;2022-09-21T02:15:07;96967.53;;;4.77;100.00
62510;BME280;48558;48.242;11.654;2022-09-21T02:19:43;96954.31;;;4.68;100.00
62510;BME280;48558;48.242;11.654;2022-09-21T02:24:13;96956.69;;;4.66;100.00
62510;BME280;48558;48.242;11.654;2022-09-21T02:28:53;96958.28;;;4.64;100.00
62510;BME280;48558;48.242;11.654;2022-09-21T02:33:10;96956.75;;;4.59;100.00
62510;BME280;48558;48.242;11.654;2022-09-21T02:37:33;96948.34;;;4.43;100.00
62510;BME280;48558;48.242;11.654;2022-09-21T02:42:07;96960.06;;;4.44;100.00
62510;BME280;48558;48.242;11.654;2022-09-21T02:46:26;96965.56;;;4.40;100.00
62510;BME280;48558;48.242;11.654;2022-09-21T02:50:51;96973.06;;;4.36;100.00
62510;BME280;48558;48.242;11.654;2022-09-21T02:55:06;96971.84;;;4.41;100.00
62510;BME280;48558;48.242;11.654;2022-09-21T02:59:21;96976.16;;;4.34;100.00
62510;BME280;48558;48.242;11.654;2022-09-21T03:03:45;96971.53;;;4.31;100.00
62510;BME280;48558;48.242;11.654;2022-09-21T03:07:58;96968.81;;;4.28;100.00
62510;BME280;48558;48.242;11.654;2022-09-21T03:12:11;96974.34;;;4.24;100.00
62510;BME280;48558;48.242;11.654;2022-09-21T03:16:26;96969.72;;;4.14;100.00
62510;BME280;48558;48.242;11.654;2022-09-21T03:20:43;96971.66;;;4.17;100.00
62510;BME280;48558;48.242;11.654;2022-09-21T03:24:59;96984.59;;;4.13;100.00
62510;BME280;48558;48.242;11.654;2022-09-21T03:29:12;96983.06;;;4.05;100.00
62510;BME280;48558;48.242;11.654;2022-09-21T03:33:26;96977.19;;;4.10;100.00
62510;BME280;48558;48.242;11.654;2022-09-21T03:37:39;96977.56;;;4.12;100.00
62510;BME280;48558;48.242;11.654;2022-09-21T03:41:52;96969.81;;;4.04;100.00
62510;BME280;48558;48.242;11.654;2022-09-21T03:46:08;96968.25;;;4.03;100.00
62510;BME280;48558;48.242;11.654;2022-09-21T03:50:23;96976.09;;;4.01;100.00
62510;BME280;48558;48.242;11.654;2022-09-21T03:54:36;96971.09;;;3.92;100.00
62510;BME280;48558;48.242;11.654;2022-09-21T03:58:50;96972.34;;;3.84;100.00
62510;BME280;48558;48.242;11.654;2022-09-21T04:03:03;96973.88;;;3.85;100.00
62510;BME280;48558;48.242;11.654;2022-09-21T04:07:17;96979.72;;;3.87;100.00
62510;BME280;48558;48.242;11.654;2022-09-21T04:11:37;96976.22;;;3.83;100.00
62510;BME280;48558;48.242;11.654;2022-09-21T04:15:50;96980.13;;;3.86;100.00
62510;BME280;48558;48.242;11.654;2022-09-21T04:20:05;96984.03;;;3.85;100.00
62510;BME280;48558;48.242;11.654;2022-09-21T04:24:18;96976.28;;;3.76;100.00
62510;BME280;48558;48.242;11.654;2022-09-21T04:28:32;96979.38;;;3.82;100.00
62510;BME280;48558;48.242;11.654;2022-09-21T04:32:45;96983.38;;;3.67;100.00
62510;BME280;48558;48.242;11.654;2022-09-21T04:36:58;96992.34;;;3.67;100.00
62510;BME280;48558;48.242;11.654;2022-09-21T04:41:12;96998.16;;;3.76;100.00
62510;BME280;48558;48.242;11.654;2022-09-21T04:45:26;96987.66;;;3.68;100.00
62510;BME280;48558;48.242;11.654;2022-09-21T04:49:49;96998.22;;;3.66;100.00
62510;BME280;48558;48.242;11.654;2022-09-21T04:54:04;96998.22;;;3.62;100.00
62510;BME280;48558;48.242;11.654;2022-09-21T04:58:22;97013.06;;;3.68;100.00
62510;BME280;48558;48.242;11.654;2022-09-21T05:02:44;97012.69;;;3.62;100.00
62510;BME280;48558;48.242;11.654;2022-09-21T05:06:58;97016.59;;;3.58;100.00
62510;BME280;48558;48.242;11.654;2022-09-21T05:11:16;97020.88;;;3.66;100.00
62510;BME280;48558;48.242;11.654;2022-09-21T05:15:33;97032.50;;;3.77;100.00
62510;BME280;48558;48.242;11.654;2022-09-21T05:19:46;97032.84;;;3.83;100.00
62510;BME280;48558;48.242;11.654;2022-09-21T05:23:59;97039.09;;;3.83;100.00
62510;BME280;48558;48.242;11.654;2022-09-21T05:28:13;97040.59;;;3.91;100.00
62510;BME280;48558;48.242;11.654;2022-09-21T05:32:48;97040.47;;;4.12;100.00
62510;BME280;48558;48.242;11.654;2022-09-21T05:41:49;97041.16;;;4.23;100.00
62510;BME280;48558;48.242;11.654;2022-09-21T05:51:01;97041.38;;;4.43;100.00
62510;BME280;48558;48.242;11.654;2022-09-21T06:04:25;97037.66;;;5.01;100.00
62510;BME280;48558;48.242;11.654;2022-09-21T06:08:38;97040.91;;;5.26;100.00
62510;BME280;48558;48.242;11.654;2022-09-21T06:12:51;97051.69;;;5.40;100.00
62510;BME280;48558;48.242;11.654;2022-09-21T06:17:04;97046.38;;;5.56;100.00
62510;BME280;48558;48.242;11.654;2022-09-21T06:21:17;97051.59;;;5.77;100.00
62510;BME280;48558;48.242;11.654;2022-09-21T06:25:31;97044.69;;;5.96;100.00
62510;BME280;48558;48.242;11.654;2022-09-21T06:29:44;97050.22;;;6.19;100.00
62510;BME280;48558;48.242;11.654;2022-09-21T06:33:57;97055.06;;;6.35;100.00
62510;BME280;48558;48.242;11.654;2022-09-21T06:38:11;97063.03;;;6.53;100.00
62510;BME280;48558;48.242;11.654;2022-09-21T06:42:24;97058.78;;;6.71;100.00
62510;BME280;48558;48.242;11.654;2022-09-21T06:46:38;97061.19;;;7.12;100.00
62510;BME280;48558;48.242;11.654;2022-09-21T06:50:58;97058.84;;;7.50;100.00
62510;BME280;48558;48.242;11.654;2022-09-21T06:55:12;97061.47;;;7.57;100.00
62510;BME280;48558;48.242;11.654;2022-09-21T06:59:25;97062.91;;;7.81;100.00
62510;BME280;48558;48.242;11.654;2022-09-21T07:03:39;97070.78;;;7.98;100.00
62510;BME280;48558;48.242;11.654;2022-09-21T07:07:57;97070.72;;;8.02;100.00
62510;BME280;48558;48.242;11.654;2022-09-21T07:12:10;97063.75;;;8.14;100.00
62510;BME280;48558;48.242;11.654;2022-09-21T07:16:23;97069.41;;;8.42;100.00
62510;BME280;48558;48.242;11.654;2022-09-21T07:20:37;97073.69;;;8.59;100.00
62510;BME280;48558;48.242;11.654;2022-09-21T07:24:51;97074.75;;;8.82;100.00
62510;BME280;48558;48.242;11.654;2022-09-21T07:29:04;97078.53;;;8.88;100.00
62510;BME280;48558;48.242;11.654;2022-09-21T07:33:19;97063.22;;;9.15;100.00
62510;BME280;48558;48.242;11.654;2022-09-21T07:37:32;97077.34;;;9.46;100.00
62510;BME280;48558;48.242;11.654;2022-09-21T07:41:45;97076.31;;;9.69;100.00
62510;BME280;48558;48.242;11.654;2022-09-21T07:45:59;97085.94;;;9.77;100.00
62510;BME280;48558;48.242;11.654;2022-09-21T07:50:14;97078.53;;;9.86;100.00
62510;BME280;48558;48.242;11.654;2022-09-21T07:54:27;97079.19;;;10.19;100.00
62510;BME280;48558;48.242;11.654;2022-09-21T07:58:40;97091.00;;;10.32;100.00
62510;BME280;48558;48.242;11.654;2022-09-21T08:03:12;97071.22;;;10.46;100.00
62510;BME280;48558;48.242;11.654;2022-09-21T08:07:25;97078.06;;;10.67;100.00
62510;BME280;48558;48.242;11.654;2022-09-21T08:11:40;97083.78;;;10.85;100.00
62510;BME280;48558;48.242;11.654;2022-09-21T08:16:00;97082.63;;;10.95;100.00
62510;BME280;48558;48.242;11.654;2022-09-21T08:20:14;97080.28;;;11.06;100.00
62510;BME280;48558;48.242;11.654;2022-09-21T08:24:27;97095.16;;;11.34;100.00
62510;BME280;48558;48.242;11.654;2022-09-21T08:28:40;97085.06;;;11.62;100.00
62510;BME280;48558;48.242;11.654;2022-09-21T08:32:54;97091.91;;;11.91;100.00
62510;BME280;48558;48.242;11.654;2022-09-21T08:37:07;97085.38;;;12.07;100.00
62510;BME280;48558;48.242;11.654;2022-09-21T08:41:34;97092.75;;;12.32;100.00
62510;BME280;48558;48.242;11.654;2022-09-21T08:45:50;97099.38;;;12.74;100.00
62510;BME280;48558;48.242;11.654;2022-09-21T08:50:04;97097.38;;;13.41;100.00
62510;BME280;48558;48.242;11.654;2022-09-21T08:58:59;97093.88;;;14.28;100.00
62510;BME280;48558;48.242;11.654;2022-09-21T09:03:23;97090.25;;;14.55;100.00
62510;BME280;48558;48.242;11.654;2022-09-21T09:07:47;97096.72;;;15.17;94.15
62510;BME280;48558;48.242;11.654;2022-09-21T09:21:49;97088.00;;;16.44;80.69
62510;BME280;48558;48.242;11.654;2022-09-21T09:26:18;97091.44;;;14.95;88.17
62510;BME280;48558;48.242;11.654;2022-09-21T09:30:33;97090.25;;;14.87;82.99
62510;BME280;48558;48.242;11.654;2022-09-21T09:34:54;97083.88;;;15.82;75.68
62510;BME280;48558;48.242;11.654;2022-09-21T09:39:12;97078.03;;;16.53;72.11
62510;BME280;48558;48.242;11.654;2022-09-21T09:48:01;97075.03;;;16.41;63.21
62510;BME280;48558;48.242;11.654;2022-09-21T09:52:27;97068.22;;;16.28;73.76
62510;BME280;48558;48.242;11.654;2022-09-21T09:56:50;97074.59;;;17.33;70.61
62510;BME280;48558;48.242;11.654;2022-09-21T10:01:03;97068.19;;;17.67;58.38
62510;BME280;48558;48.242;11.654;2022-09-21T10:05:24;97062.59;;;17.06;59.71
62510;BME280;48558;48.242;11.654;2022-09-21T10:09:43;97058.25;;;17.46;63.02
62510;BME280;48558;48.242;11.654;2022-09-21T10:14:06;97049.56;;;17.44;58.22
62510;BME280;48558;48.242;11.654;2022-09-21T10:18:24;97054.56;;;18.00;61.10
62510;BME280;48558;48.242;11.654;2022-09-21T10:22:38;97051.78;;;16.79;59.87
62510;BME280;48558;48.242;11.654;2022-09-21T10:27:00;97039.19;;;16.05;69.52
62510;BME280;48558;48.242;11.654;2022-09-21T10:31:22;97037.56;;;15.99;64.15
62510;BME280;48558;48.242;11.654;2022-09-21T10:35:47;97024.72;;;17.05;57.85
62510;BME280;48558;48.242;11.654;2022-09-21T10:40:03;97034.84;;;17.89;61.81
62510;BME280;48558;48.242;11.654;2022-09-21T10:44:40;97036.28;;;17.79;57.07
62510;BME280;48558;48.242;11.654;2022-09-21T10:48:53;97027.16;;;18.35;53.31
62510;BME280;48558;48.242;11.654;2022-09-21T10:57:24;97018.38;;;17.91;53.50
62510;BME280;48558;48.242;11.654;2022-09-21T11:01:47;97025.59;;;17.11;57.20
62510;BME280;48558;48.242;11.654;2022-09-21T11:06:28;97022.81;;;16.27;62.88
62510;BME280;48558;48.242;11.654;2022-09-21T11:10:47;97025.09;;;15.56;68.80
62510;BME280;48558;48.242;11.654;2022-09-21T11:15:11;97021.16;;;16.50;57.79
62510;BME280;48558;48.242;11.654;2022-09-21T11:19:37;97008.59;;;16.95;55.47
62510;BME280;48558;48.242;11.654;2022-09-21T11:28:51;97019.28;;;17.37;60.52
62510;BME280;48558;48.242;11.654;2022-09-21T11:33:48;97007.25;;;19.01;53.69
62510;BME280;48558;48.242;11.654;2022-09-21T11:38:17;97002.34;;;19.44;51.74
62510;BME280;48558;48.242;11.654;2022-09-21T11:42:44;96997.38;;;20.53;45.97
62510;BME280;48558;48.242;11.654;2022-09-21T11:56:21;96986.50;;;18.77;50.79
62510;BME280;48558;48.242;11.654;2022-09-21T12:05:20;96981.19;;;17.39;53.50
62510;BME280;48558;48.242;11.654;2022-09-21T12:18:46;96968.28;;;20.18;44.45
62510;BME280;48558;48.242;11.654;2022-09-21T12:23:11;96974.44;;;20.27;44.95
62510;BME280;48558;48.242;11.654;2022-09-21T12:27:41;96972.38;;;19.08;45.63
62510;BME280;48558;48.242;11.654;2022-09-21T12:32:18;96963.94;;;18.54;47.25
62510;BME280;48558;48.242;11.654;2022-09-21T12:36:39;96957.56;;;17.14;52.53
62510;BME280;48558;48.242;11.654;2022-09-21T12:45:32;96953.16;;;17.08;49.03
62510;BME280;48558;48.242;11.654;2022-09-21T12:49:47;96944.81;;;18.11;53.15
62510;BME280;48558;48.242;11.654;2022-09-21T12:54:12;96944.31;;;18.97;48.83
62510;BME280;48558;48.242;11.654;2022-09-21T13:03:04;96946.00;;;18.35;44.61
62510;BME280;48558;48.242;11.654;2022-09-21T13:16:27;96942.69;;;17.49;48.26
62510;BME280;48558;48.242;11.654;2022-09-21T13:20:41;96944.13;;;16.03;52.07
62510;BME280;48558;48.242;11.654;2022-09-21T13:29:30;96937.31;;;17.97;47.12
62510;BME280;48558;48.242;11.654;2022-09-21T13:43:14;96917.22;;;17.92;45.29
62510;BME280;48558;48.242;11.654;2022-09-21T13:47:36;96923.84;;;18.74;45.79
62510;BME280;48558;48.242;11.654;2022-09-21T13:52:03;96916.31;;;19.02;41.60
62510;BME280;48558;48.242;11.654;2022-09-21T13:56:20;96912.38;;;19.42;42.34
62510;BME280;48558;48.242;11.654;2022-09-21T14:00:39;96898.00;;;19.07;41.12
62510;BME280;48558;48.242;11.654;2022-09-21T14:05:03;96897.72;;;18.04;42.87
62510;BME280;48558;48.242;11.654;2022-09-21T14:13:44;96901.69;;;18.28;42.30
62510;BME280;48558;48.242;11.654;2022-09-21T14:18:18;96905.06;;;18.01;45.74
62510;BME280;48558;48.242;11.654;2022-09-21T14:22:34;96906.66;;;16.24;48.98
62510;BME280;48558;48.242;11.654;2022-09-21T14:27:24;96896.00;;;15.73;51.24
62510;BME280;48558;48.242;11.654;2022-09-21T14:31:37;96911.66;;;16.20;47.03
62510;BME280;48558;48.242;11.654;2022-09-21T14:36:07;96906.28;;;16.52;46.49
62510;BME280;48558;48.242;11.654;2022-09-21T14:40:38;96896.69;;;16.53;45.92
62510;BME280;48558;48.242;11.654;2022-09-21T14:45:18;96895.91;;;16.52;48.72
62510;BME280;48558;48.242;11.654;2022-09-21T14:49:53;96901.44;;;16.32;46.41
62510;BME280;48558;48.242;11.654;2022-09-21T15:03:45;96890.53;;;15.64;49.33
62510;BME280;48558;48.242;11.654;2022-09-21T15:08:14;96878.91;;;15.81;51.11
62510;BME280;48558;48.242;11.654;2022-09-21T15:17:27;96879.75;;;15.43;54.89
62510;BME280;48558;48.242;11.654;2022-09-21T15:21:49;96879.66;;;15.23;53.77
62510;BME280;48558;48.242;11.654;2022-09-21T15:26:08;96877.09;;;15.19;56.55
62510;BME280;48558;48.242;11.654;2022-09-21T15:30:24;96868.63;;;15.14;55.08
62510;BME280;48558;48.242;11.654;2022-09-21T15:34:38;96875.50;;;14.89;57.50
62510;BME280;48558;48.242;11.654;2022-09-21T15:38:53;96876.84;;;14.79;57.21
62510;BME280;48558;48.242;11.654;2022-09-21T15:47:25;96877.72;;;14.61;57.96
62510;BME280;48558;48.242;11.654;2022-09-21T15:51:42;96874.34;;;14.43;58.69
62510;BME280;48558;48.242;11.654;2022-09-21T15:55:58;96880.91;;;14.30;58.75
62510;BME280;48558;48.242;11.654;2022-09-21T16:04:27;96872.75;;;13.94;63.74
62510;BME280;48558;48.242;11.654;2022-09-21T16:08:40;96873.84;;;13.88;65.71
62510;BME280;48558;48.242;11.654;2022-09-21T16:13:23;96875.00;;;13.72;64.36
62510;BME280;48558;48.242;11.654;2022-09-21T16:18:03;96881.41;;;13.54;66.95
62510;BME280;48558;48.242;11.654;2022-09-21T16:22:41;96890.84;;;13.39;69.31
62510;BME280;48558;48.242;11.654;2022-09-21T16:26:57;96885.03;;;13.28;66.00
62510;BME280;48558;48.242;11.654;2022-09-21T16:31:26;96891.22;;;13.14;69.70
62510;BME280;48558;48.242;11.654;2022-09-21T16:35:41;96893.34;;;13.01;72.28
62510;BME280;48558;48.242;11.654;2022-09-21T16:39:56;96894.16;;;12.92;76.73
62510;BME280;48558;48.242;11.654;2022-09-21T16:44:16;96894.94;;;12.56;81.59
62510;BME280;48558;48.242;11.654;2022-09-21T16:48:32;96890.91;;;12.39;86.80
62510;BME280;48558;48.242;11.654;2022-09-21T16:52:45;96894.84;;;12.02;89.81
62510;BME280;48558;48.242;11.654;2022-09-21T16:57:05;96906.44;;;11.79;90.65
62510;BME280;48558;48.242;11.654;2022-09-21T17:01:19;96894.81;;;11.53;92.26
62510;BME280;48558;48.242;11.654;2022-09-21T17:05:33;96900.81;;;11.30;99.69
62510;BME280;48558;48.242;11.654;2022-09-21T17:09:46;96905.41;;;11.02;100.00
62510;BME280;48558;48.242;11.654;2022-09-21T17:14:00;96901.25;;;10.76;100.00
62510;BME280;48558;48.242;11.654;2022-09-21T17:18:15;96903.31;;;10.50;100.00
62510;BME280;48558;48.242;11.654;2022-09-21T17:22:29;96900.97;;;10.27;100.00
62510;BME280;48558;48.242;11.654;2022-09-21T17:26:43;96908.69;;;10.07;100.00
62510;BME280;48558;48.242;11.654;2022-09-21T17:30:57;96914.25;;;9.94;100.00
62510;BME280;48558;48.242;11.654;2022-09-21T17:35:15;96909.84;;;9.84;100.00
62510;BME280;48558;48.242;11.654;2022-09-21T17:39:31;96904.88;;;9.67;100.00
62510;BME280;48558;48.242;11.654;2022-09-21T17:43:55;96913.50;;;9.56;100.00
62510;BME280;48558;48.242;11.654;2022-09-21T17:48:18;96904.66;;;9.36;100.00
62510;BME280;48558;48.242;11.654;2022-09-21T17:52:33;96911.56;;;9.15;100.00
62510;BME280;48558;48.242;11.654;2022-09-21T17:57:13;96921.81;;;9.02;100.00
62510;BME280;48558;48.242;11.654;2022-09-21T18:05:45;96924.38;;;8.81;100.00
62510;BME280;48558;48.242;11.654;2022-09-21T18:10:00;96931.50;;;8.65;100.00
62510;BME280;48558;48.242;11.654;2022-09-21T18:14:26;96932.53;;;8.55;100.00
62510;BME280;48558;48.242;11.654;2022-09-21T18:19:03;96928.78;;;8.49;100.00
62510;BME280;48558;48.242;11.654;2022-09-21T18:27:44;96929.47;;;8.37;100.00
62510;BME280;48558;48.242;11.654;2022-09-21T18:36:29;96930.25;;;8.38;100.00
62510;BME280;48558;48.242;11.654;2022-09-21T18:40:54;96945.41;;;8.30;100.00
62510;BME280;48558;48.242;11.654;2022-09-21T18:45:20;96941.44;;;8.31;100.00
62510;BME280;48558;48.242;11.654;2022-09-21T18:53:59;96946.09;;;8.34;100.00
62510;BME280;48558;48.242;11.654;2022-09-21T18:58:21;96950.63;;;8.24;100.00
62510;BME280;48558;48.242;11.654;2022-09-21T19:03:51;96953.13;;;8.19;100.00
62510;BME280;48558;48.242;11.654;2022-09-21T19:15:24;96947.63;;;8.35;100.00
62510;BME280;48558;48.242;11.654;2022-09-21T19:23:50;96946.19;;;7.98;100.00
62510;BME280;48558;48.242;11.654;2022-09-21T19:33:32;96949.94;;;7.88;100.00
62510;BME280;48558;48.242;11.654;2022-09-21T19:38:23;96943.41;;;7.82;100.00
62510;BME280;48558;48.242;11.654;2022-09-21T19:43:01;96955.09;;;7.86;100.00
62510;BME280;48558;48.242;11.654;2022-09-21T19:47:32;96952.16;;;7.77;100.00
62510;BME280;48558;48.242;11.654;2022-09-21T19:52:02;96956.13;;;7.76;100.00
62510;BME280;48558;48.242;11.654;2022-09-21T19:56:21;96961.97;;;7.62;100.00
62510;BME280;48558;48.242;11.654;2022-09-21T20:00:55;96954.72;;;7.52;100.00
62510;BME280;48558;48.242;11.654;2022-09-21T20:05:32;96958.63;;;7.70;100.00
62510;BME280;48558;48.242;11.654;2022-09-21T20:15:01;96947.94;;;7.56;100.00
62510;BME280;48558;48.242;11.654;2022-09-21T20:24:20;96936.41;;;7.45;100.00
62510;BME280;48558;48.242;11.654;2022-09-21T20:28:54;96946.75;;;7.38;100.00
62510;BME280;48558;48.242;11.654;2022-09-21T20:33:17;96938.16;;;7.36;100.00
62510;BME280;48558;48.242;11.654;2022-09-21T20:38:00;96943.91;;;7.25;100.00
62510;BME280;48558;48.242;11.654;2022-09-21T20:42:25;96950.81;;;7.13;100.00
62510;BME280;48558;48.242;11.654;2022-09-21T20:46:43;96945.97;;;7.01;100.00
62510;BME280;48558;48.242;11.654;2022-09-21T20:51:08;96936.09;;;6.84;100.00
62510;BME280;48558;48.242;11.654;2022-09-21T20:55:30;96945.66;;;6.76;100.00
62510;BME280;48558;48.242;11.654;2022-09-21T20:59:44;96948.59;;;6.69;100.00
62510;BME280;48558;48.242;11.654;2022-09-21T21:04:06;96951.03;;;6.64;100.00
62510;BME280;48558;48.242;11.654;2022-09-21T21:08:34;96954.81;;;6.50;100.00
62510;BME280;48558;48.242;11.654;2022-09-21T21:13:01;96958.47;;;6.43;100.00
62510;BME280;48558;48.242;11.654;2022-09-21T21:17:18;96954.47;;;6.48;100.00
62510;BME280;48558;48.242;11.654;2022-09-21T21:21:35;96947.59;;;6.36;100.00
62510;BME280;48558;48.242;11.654;2022-09-21T21:26:06;96940.19;;;6.33;100.00
62510;BME280;48558;48.242;11.654;2022-09-21T21:30:25;96947.69;;;6.33;100.00
62510;BME280;48558;48.242;11.654;2022-09-21T21:34:55;96943.00;;;6.30;100.00
62510;BME280;48558;48.242;11.654;2022-09-21T21:39:13;96931.44;;;6.19;100.00
62510;BME280;48558;48.242;11.654;2022-09-21T21:43:32;96941.19;;;6.23;100.00
62510;BME280;48558;48.242;11.654;2022-09-21T21:47:50;96938.91;;;6.18;100.00
62510;BME280;48558;48.242;11.654;2022-09-21T21:52:13;96942.19;;;6.10;100.00
62510;BME280;48558;48.242;11.654;2022-09-21T21:56:32;96941.41;;;6.09;100.00
62510;BME280;48558;48.242;11.654;2022-09-21T22:00:47;96934.97;;;5.96;100.00
62510;BME280;48558;48.242;11.654;2022-09-21T22:05:09;96940.50;;;5.93;100.00
62510;BME280;48558;48.242;11.654;2022-09-21T22:09:24;96941.03;;;5.84;100.00
62510;BME280;48558;48.242;11.654;2022-09-21T22:13:48;96958.31;;;5.81;100.00
62510;BME280;48558;48.242;11.654;2022-09-21T22:18:06;96952.50;;;5.75;100.00
62510;BME280;48558;48.242;11.654;2022-09-21T22:22:21;96942.78;;;5.71;100.00
62510;BME280;48558;48.242;11.654;2022-09-21T22:26:42;96943.31;;;5.89;100.00
62510;BME280;48558;48.242;11.654;2022-09-21T22:30:56;96947.91;;;5.69;100.00
62510;BME280;48558;48.242;11.654;2022-09-21T22:35:09;96939.59;;;5.49;100.00
62510;BME280;48558;48.242;11.654;2022-09-21T22:39:22;96937.78;;;5.39;100.00
62510;BME280;48558;48.242;11.654;2022-09-21T22:43:36;96924.59;;;5.31;100.00
62510;BME280;48558;48.242;11.654;2022-09-21T22:47:49;96922.72;;;5.24;100.00
62510;BME280;48558;48.242;11.654;2022-09-21T22:52:02;96913.38;;;5.22;100.00
62510;BME280;48558;48.242;11.654;2022-09-21T22:56:18;96922.66;;;5.28;100.00
62510;BME280;48558;48.242;11.654;2022-09-21T23:00:31;96920.53;;;5.12;100.00
62510;BME280;48558;48.242;11.654;2022-09-21T23:04:44;96918.59;;;5.09;100.00
62510;BME280;48558;48.242;11.654;2022-09-21T23:08:59;96923.00;;;5.03;100.00
62510;BME280;48558;48.242;11.654;2022-09-21T23:13:12;96917.09;;;5.04;100.00
62510;BME280;48558;48.242;11.654;2022-09-21T23:17:27;96916.97;;;5.15;100.00
62510;BME280;48558;48.242;11.654;2022-09-21T23:21:42;96918.16;;;5.14;100.00
62510;BME280;48558;48.242;11.654;2022-09-21T23:26:20;96922.13;;;5.09;100.00
62510;BME280;48558;48.242;11.654;2022-09-21T23:30:34;96911.69;;;5.01;100.00
62510;BME280;48558;48.242;11.654;2022-09-21T23:34:48;96903.13;;;4.95;100.00
62510;BME280;48558;48.242;11.654;2022-09-21T23:39:11;96916.94;;;4.88;100.00
62510;BME280;48558;48.242;11.654;2022-09-21T23:43:24;96894.94;;;4.65;100.00
62510;BME280;48558;48.242;11.654;2022-09-21T23:47:37;96902.00;;;4.63;100.00
62510;BME280;48558;48.242;11.654;2022-09-21T23:51:51;96900.44;;;4.62;100.00
62510;BME280;48558;48.242;11.654;2022-09-21T23:56:05;96898.19;;;4.53;100.00
